createdAt,value
2022-10-18T00:00:54.672Z,30.80
2022-10-18T00:03:23.468Z,29.45
2022-10-18T00:05:53.292Z,30.45
2022-10-18T00:08:21.581Z,30.45
2022-10-18T00:10:50.072Z,31.33
2022-10-18T00:13:18.530Z,29.40
2022-10-18T00:15:50.633Z,32.28
2022-10-18T00:18:18.978Z,29.67
2022-10-18T00:20:46.969Z,30.90
2022-10-18T00:23:16.377Z,29.90
2022-10-18T00:25:44.348Z,30.85
2022-10-18T00:28:12.403Z,32.35
2022-10-18T00:30:40.375Z,30.67
2022-10-18T00:33:08.440Z,28.77
2022-10-18T00:35:36.465Z,30.80
2022-10-18T00:38:04.503Z,30.60
2022-10-18T00:40:34.258Z,30.65
2022-10-18T00:43:02.310Z,28.35
2022-10-18T00:45:30.598Z,29.15
2022-10-18T00:48:02.385Z,28.77
2022-10-18T00:50:34.211Z,28.25
2022-10-18T00:53:05.981Z,29.08
2022-10-18T00:55:35.628Z,27.13
2022-10-18T00:58:04.912Z,27.25
2022-10-18T01:00:34.746Z,27.45
2022-10-18T01:03:02.766Z,28.33
2022-10-18T01:05:30.829Z,27.27
2022-10-18T01:08:21.075Z,26.05
2022-10-18T01:11:01.619Z,26.55
2022-10-18T01:13:40.590Z,25.25
2022-10-18T01:16:15.776Z,26.17
2022-10-18T01:18:48.843Z,25.30
2022-10-18T01:21:31.181Z,25.58
2022-10-18T01:24:31.019Z,29.65
2022-10-18T01:27:23.947Z,23.55
2022-10-18T01:30:08.058Z,24.83
2022-10-18T01:32:42.563Z,26.73
2022-10-18T01:35:15.251Z,24.23
2022-10-18T01:37:46.805Z,25.52
2022-10-18T01:40:18.658Z,21.95
2022-10-18T01:42:48.842Z,25.52
2022-10-18T01:45:18.045Z,23.92
2022-10-18T01:47:48.335Z,25.38
2022-10-18T01:50:16.657Z,24.77
2022-10-18T01:52:52.030Z,23.58
2022-10-18T01:55:26.741Z,23.90
2022-10-18T01:58:00.485Z,26.20
2022-10-18T02:00:37.637Z,23.88
2022-10-18T02:03:14.685Z,24.25
2022-10-18T02:05:50.212Z,22.55
2022-10-18T02:08:26.217Z,23.77
2022-10-18T02:10:59.862Z,25.45
2022-10-18T02:13:32.753Z,23.65
2022-10-18T02:16:06.086Z,23.65
2022-10-18T02:18:40.390Z,22.48
2022-10-18T02:21:11.929Z,22.00
2022-10-18T02:23:40.325Z,23.38
2022-10-18T02:26:08.590Z,22.27
2022-10-18T02:28:36.650Z,25.08
2022-10-18T02:31:11.950Z,22.35
2022-10-18T02:33:47.721Z,22.15
2022-10-18T02:36:19.676Z,22.20
2022-10-18T02:38:49.399Z,22.98
2022-10-18T02:41:24.002Z,23.02
2022-10-18T02:43:52.018Z,23.98
2022-10-18T02:46:20.270Z,22.00
2022-10-18T02:48:49.844Z,21.75
2022-10-18T02:51:18.171Z,22.70
2022-10-18T02:53:46.203Z,21.83
2022-10-18T02:56:14.262Z,22.38
2022-10-18T02:58:42.249Z,22.80
2022-10-18T03:01:10.354Z,24.55
2022-10-18T03:03:38.371Z,22.95
2022-10-18T03:06:07.797Z,23.52
2022-10-18T03:08:37.109Z,26.05
2022-10-18T03:11:05.105Z,25.83
2022-10-18T03:13:34.301Z,23.02
2022-10-18T03:16:02.714Z,23.73
2022-10-18T03:18:30.770Z,29.63
2022-10-18T03:20:59.312Z,26.95
2022-10-18T03:23:28.694Z,27.98
2022-10-18T03:25:56.703Z,38.40
2022-10-18T03:28:24.731Z,47.45
2022-10-18T03:30:52.764Z,36.72
2022-10-18T03:33:20.849Z,46.13
2022-10-18T03:35:48.802Z,44.58
2022-10-18T03:38:16.785Z,47.42
2022-10-18T03:40:46.190Z,43.00
2022-10-18T03:43:14.198Z,43.72
2022-10-18T03:45:42.413Z,43.45
2022-10-18T03:48:10.428Z,41.08
2022-10-18T03:50:38.499Z,37.28
2022-10-18T03:53:06.557Z,39.30
2022-10-18T03:55:34.534Z,39.45
2022-10-18T03:58:04.074Z,41.05
2022-10-18T04:00:32.174Z,39.10
2022-10-18T04:03:00.233Z,40.42
2022-10-18T04:05:30.839Z,42.95
2022-10-18T04:07:59.012Z,45.03
2022-10-18T04:10:27.309Z,50.55
2022-10-18T04:12:55.659Z,53.67
2022-10-18T04:15:24.996Z,59.00
2022-10-18T04:17:52.966Z,51.33
2022-10-18T04:20:21.010Z,58.03
2022-10-18T04:22:49.626Z,47.63
2022-10-18T04:25:17.922Z,44.28
2022-10-18T04:27:45.881Z,47.00
2022-10-18T04:30:13.940Z,28.73
2022-10-18T04:32:43.298Z,36.33
2022-10-18T04:35:11.425Z,35.38
2022-10-18T04:37:39.397Z,27.42
2022-10-18T04:40:08.683Z,41.05
2022-10-18T04:42:36.720Z,26.10
2022-10-18T04:45:04.965Z,25.52
2022-10-18T04:47:33.198Z,26.20
2022-10-18T04:50:02.810Z,24.38
2022-10-18T04:52:30.835Z,22.20
2022-10-18T04:54:58.902Z,24.13
2022-10-18T04:57:26.875Z,26.67
2022-10-18T04:59:54.898Z,24.67
2022-10-18T05:02:22.911Z,29.88
2022-10-18T05:04:51.922Z,27.40
2022-10-18T05:07:21.297Z,27.52
2022-10-18T05:09:49.333Z,26.45
2022-10-18T05:12:17.345Z,26.73
2022-10-18T05:14:45.364Z,27.05
2022-10-18T05:17:13.345Z,30.00
2022-10-18T05:19:41.372Z,29.08
2022-10-18T05:22:09.352Z,26.10
2022-10-18T05:24:38.752Z,23.10
2022-10-18T05:27:06.772Z,29.27
2022-10-18T05:29:34.790Z,28.55
2022-10-18T05:32:03.190Z,28.15
2022-10-18T05:34:32.017Z,21.55
2022-10-18T05:37:00.839Z,27.60
2022-10-18T05:39:28.827Z,26.65
2022-10-18T05:41:58.581Z,28.63
2022-10-18T05:44:26.675Z,24.60
2022-10-18T05:46:54.619Z,25.50
2022-10-18T05:49:22.661Z,28.77
2022-10-18T05:51:50.686Z,26.92
2022-10-18T05:54:19.090Z,27.05
2022-10-18T05:56:47.131Z,19.92
2022-10-18T05:59:16.467Z,21.80
2022-10-18T06:01:45.532Z,26.27
2022-10-18T06:04:13.632Z,26.83
2022-10-18T06:06:41.614Z,25.42
2022-10-18T06:09:09.628Z,24.00
2022-10-18T06:11:38.096Z,25.13
2022-10-18T06:14:06.380Z,25.67
2022-10-18T06:19:08.773Z,23.75
2022-10-18T06:21:36.771Z,23.83
2022-10-18T06:24:04.994Z,22.38
2022-10-18T06:26:32.967Z,25.13
2022-10-18T06:29:01.074Z,23.23
2022-10-18T06:31:29.056Z,21.17
2022-10-18T06:33:59.089Z,24.45
2022-10-18T06:36:27.113Z,27.30
2022-10-18T06:38:56.572Z,23.25
2022-10-18T06:41:25.233Z,20.92
2022-10-18T06:43:57.334Z,17.83
2022-10-18T06:46:26.013Z,22.58
2022-10-18T06:48:54.035Z,23.08
2022-10-18T06:51:23.359Z,27.38
2022-10-18T06:54:06.180Z,21.10
2022-10-18T06:56:39.698Z,24.42
2022-10-18T06:59:07.693Z,24.90
2022-10-18T07:01:35.752Z,19.00
2022-10-18T07:04:03.880Z,24.45
2022-10-18T07:06:33.281Z,18.08
2022-10-18T07:09:03.019Z,21.25
2022-10-18T07:11:31.053Z,16.60
2022-10-18T07:14:03.138Z,18.38
2022-10-18T07:16:31.649Z,17.13
2022-10-18T07:18:59.761Z,17.08
2022-10-18T07:21:28.011Z,19.05
2022-10-18T07:23:57.954Z,17.50
2022-10-18T07:26:29.070Z,18.58
2022-10-18T07:28:59.277Z,16.60
2022-10-18T07:31:27.506Z,17.13
2022-10-18T07:33:55.697Z,17.65
2022-10-18T07:36:24.648Z,16.17
2022-10-18T07:38:53.467Z,18.13
2022-10-18T07:41:23.493Z,18.92
2022-10-18T07:43:53.603Z,18.20
2022-10-18T07:46:23.167Z,18.92
2022-10-18T07:48:51.674Z,15.43
2022-10-18T07:51:20.440Z,17.30
2022-10-18T07:53:48.966Z,17.55
2022-10-18T07:56:21.013Z,15.95
2022-10-18T07:58:52.664Z,17.23
2022-10-18T08:01:21.663Z,15.88
2022-10-18T08:03:50.183Z,17.05
2022-10-18T08:06:19.620Z,17.13
2022-10-18T08:08:47.854Z,15.15
2022-10-18T08:11:18.110Z,16.27
2022-10-18T08:13:46.271Z,15.88
2022-10-18T08:16:17.887Z,12.93
2022-10-18T08:18:46.099Z,13.90
2022-10-18T08:21:15.230Z,11.95
2022-10-18T08:23:43.953Z,9.73
2022-10-18T08:26:14.243Z,10.55
2022-10-18T08:28:49.082Z,11.10
2022-10-18T08:31:27.912Z,10.63
2022-10-18T08:33:57.385Z,11.35
2022-10-18T08:36:25.621Z,10.70
2022-10-18T08:38:53.677Z,10.93
2022-10-18T08:41:43.699Z,11.40
2022-10-18T08:44:18.698Z,9.98
2022-10-18T08:46:50.454Z,10.90
2022-10-18T08:49:28.529Z,11.57
2022-10-18T08:51:57.655Z,9.35
2022-10-18T08:54:32.703Z,9.95
2022-10-18T08:57:03.087Z,9.93
2022-10-18T08:59:39.174Z,9.82
2022-10-18T09:02:18.261Z,9.10
2022-10-18T09:04:51.782Z,10.23
2022-10-18T09:07:36.768Z,9.68
2022-10-18T09:10:17.344Z,7.90
2022-10-18T09:13:01.226Z,8.38
2022-10-18T09:15:37.939Z,8.70
2022-10-18T09:18:18.711Z,8.68
2022-10-18T09:20:55.045Z,7.75
2022-10-18T09:23:26.545Z,8.05
2022-10-18T09:26:02.537Z,8.27
2022-10-18T09:28:41.236Z,7.60
2022-10-18T09:31:17.053Z,6.68
2022-10-18T09:33:52.347Z,6.95
2022-10-18T09:36:23.879Z,6.97
2022-10-18T09:38:57.173Z,6.43
2022-10-18T09:41:33.106Z,5.90
2022-10-18T09:44:07.291Z,5.85
2022-10-18T09:46:39.865Z,5.00
2022-10-18T09:49:16.347Z,5.82
2022-10-18T09:51:46.054Z,5.55
2022-10-18T09:54:22.854Z,5.38
2022-10-18T09:56:53.633Z,5.25
2022-10-18T09:59:33.720Z,4.18
2022-10-18T10:02:01.794Z,4.45
2022-10-18T10:04:31.213Z,4.20
2022-10-18T10:07:02.582Z,3.97
2022-10-18T10:09:32.614Z,3.80
2022-10-18T10:12:00.839Z,3.67
2022-10-18T10:14:30.791Z,3.50
2022-10-18T10:17:02.211Z,3.78
2022-10-18T10:19:34.115Z,4.50
2022-10-18T10:22:06.530Z,3.30
2022-10-18T10:24:41.585Z,2.95
2022-10-18T10:27:20.433Z,3.15
2022-10-18T10:30:01.417Z,3.30
2022-10-18T10:32:33.150Z,2.55
2022-10-18T10:35:02.573Z,2.40
2022-10-18T10:37:35.832Z,2.53
2022-10-18T10:40:24.110Z,2.60
2022-10-18T10:43:18.454Z,3.03
2022-10-18T10:46:03.436Z,2.72
2022-10-18T10:48:34.686Z,2.65
2022-10-18T10:51:07.258Z,2.20
2022-10-18T10:53:40.681Z,2.60
2022-10-18T10:56:32.295Z,2.85
2022-10-18T10:59:09.170Z,2.33
2022-10-18T11:01:37.589Z,2.55
2022-10-18T11:04:26.862Z,2.80
2022-10-18T11:07:13.842Z,2.60
2022-10-18T11:10:01.626Z,2.35
2022-10-18T11:12:34.698Z,2.97
2022-10-18T11:15:23.422Z,2.72
2022-10-18T11:18:04.080Z,2.42
2022-10-18T11:20:37.931Z,2.30
2022-10-18T11:23:11.462Z,2.30
2022-10-18T11:25:56.266Z,2.55
2022-10-18T11:28:33.746Z,2.70
2022-10-18T11:31:15.386Z,2.72
2022-10-18T11:34:08.605Z,2.22
2022-10-18T11:36:54.707Z,2.30
2022-10-18T11:39:42.364Z,2.45
2022-10-18T11:42:20.598Z,2.13
2022-10-18T11:44:56.907Z,1.98
2022-10-18T11:47:33.171Z,2.67
2022-10-18T11:50:12.963Z,2.35
2022-10-18T11:52:49.107Z,2.33
2022-10-18T11:55:37.867Z,2.38
2022-10-18T11:58:35.298Z,2.20
2022-10-18T12:01:12.656Z,2.78
2022-10-18T12:03:55.230Z,2.25
2022-10-18T12:06:27.441Z,2.35
2022-10-18T12:08:59.841Z,2.45
2022-10-18T12:11:33.002Z,2.50
2022-10-18T12:14:03.274Z,2.60
2022-10-18T12:16:51.073Z,2.00
2022-10-18T12:19:26.395Z,1.88
2022-10-18T12:21:57.539Z,2.17
2022-10-18T12:24:28.692Z,2.33
2022-10-18T12:27:01.305Z,1.85
2022-10-18T12:29:33.015Z,2.22
2022-10-18T12:32:04.307Z,2.50
2022-10-18T12:34:37.030Z,1.90
2022-10-18T12:37:31.275Z,1.90
2022-10-18T12:40:11.130Z,2.30
2022-10-18T12:42:48.076Z,2.00
2022-10-18T12:45:33.087Z,2.30
2022-10-18T12:48:02.399Z,2.45
2022-10-18T12:50:38.971Z,2.42
2022-10-18T12:53:20.179Z,2.78
2022-10-18T12:55:51.376Z,2.63
2022-10-18T12:58:30.075Z,2.28
2022-10-18T13:01:04.546Z,2.33
2022-10-18T13:03:58.578Z,2.10
2022-10-18T13:06:26.700Z,2.10
2022-10-18T13:09:20.514Z,2.53
2022-10-18T13:11:49.062Z,2.10
2022-10-18T13:15:12.781Z,2.50
2022-10-18T13:17:53.912Z,2.22
2022-10-18T13:20:27.876Z,1.90
2022-10-18T13:23:24.356Z,2.10
2022-10-18T13:25:59.791Z,2.15
2022-10-18T13:28:33.343Z,2.40
2022-10-18T13:31:20.486Z,2.38
2022-10-18T13:33:48.875Z,2.08
2022-10-18T13:36:24.809Z,2.13
2022-10-18T13:39:05.904Z,2.10
2022-10-18T13:41:57.414Z,1.90
2022-10-18T13:44:30.548Z,2.10
2022-10-18T13:47:36.154Z,2.08
2022-10-18T13:50:31.091Z,2.90
2022-10-18T13:53:33.929Z,2.30
2022-10-18T13:56:26.677Z,2.13
2022-10-18T13:59:14.329Z,2.08
2022-10-18T14:01:56.260Z,2.33
2022-10-18T14:04:41.578Z,2.10
2022-10-18T14:07:11.402Z,1.92
2022-10-18T14:09:48.855Z,2.38
2022-10-18T14:12:27.662Z,2.20
2022-10-18T14:15:03.267Z,2.10
2022-10-18T14:17:40.938Z,2.13
2022-10-18T14:20:19.746Z,1.88
2022-10-18T14:22:52.422Z,2.00
2022-10-18T14:25:23.624Z,2.72
2022-10-18T14:28:07.754Z,2.28
2022-10-18T14:30:37.429Z,2.42
2022-10-18T14:33:06.971Z,1.70
2022-10-18T14:35:35.773Z,2.40
2022-10-18T14:38:04.326Z,2.45
2022-10-18T14:40:38.140Z,2.15
2022-10-18T14:43:11.785Z,2.03
2022-10-18T14:45:39.905Z,2.17
2022-10-18T14:48:15.839Z,2.15
2022-10-18T14:50:44.869Z,2.42
2022-10-18T14:53:18.675Z,2.70
2022-10-18T14:55:54.571Z,2.60
2022-10-18T14:58:23.275Z,2.10
2022-10-18T15:00:51.495Z,2.40
2022-10-18T15:03:21.343Z,2.13
2022-10-18T15:05:59.349Z,2.33
2022-10-18T15:08:30.649Z,1.83
2022-10-18T15:10:58.973Z,2.58
2022-10-18T15:13:27.401Z,1.88
2022-10-18T15:15:56.687Z,2.15
2022-10-18T15:18:27.922Z,2.38
2022-10-18T15:21:09.816Z,1.92
2022-10-18T15:23:37.938Z,2.30
2022-10-18T15:26:08.568Z,2.20
2022-10-18T15:28:49.369Z,2.15
2022-10-18T15:31:25.081Z,2.28
2022-10-18T15:33:56.346Z,2.00
2022-10-18T15:36:32.923Z,2.20
2022-10-18T15:39:09.570Z,2.33
2022-10-18T15:41:42.260Z,2.63
2022-10-18T15:44:21.879Z,2.30
2022-10-18T15:46:52.865Z,2.22
2022-10-18T15:49:58.222Z,1.98
2022-10-18T15:52:37.784Z,2.10
2022-10-18T15:55:47.791Z,1.83
2022-10-18T15:58:22.222Z,1.85
2022-10-18T16:00:51.875Z,1.80
2022-10-18T16:03:22.269Z,2.10
2022-10-18T16:05:51.068Z,2.03
2022-10-18T16:08:25.235Z,2.10
2022-10-18T16:10:53.990Z,1.80
2022-10-18T16:13:22.026Z,2.58
2022-10-18T16:15:50.034Z,2.40
2022-10-18T16:18:20.192Z,1.85
2022-10-18T16:20:49.134Z,2.00
2022-10-18T16:23:19.368Z,2.00
2022-10-18T16:25:49.100Z,2.00
2022-10-18T16:28:19.773Z,2.10
2022-10-18T16:30:54.727Z,2.20
2022-10-18T16:33:22.808Z,1.85
2022-10-18T16:35:50.979Z,2.00
2022-10-18T16:38:31.089Z,2.03
2022-10-18T16:41:04.054Z,2.08
2022-10-18T16:43:32.586Z,1.90
2022-10-18T16:46:00.554Z,2.63
2022-10-18T16:48:29.189Z,2.10
2022-10-18T16:50:57.883Z,1.90
2022-10-18T16:53:26.327Z,2.30
2022-10-18T16:55:57.065Z,2.20
2022-10-18T16:58:28.514Z,2.25
2022-10-18T17:00:56.928Z,2.17
2022-10-18T17:03:28.225Z,2.17
2022-10-18T17:05:59.176Z,2.10
2022-10-18T17:08:29.133Z,2.05
2022-10-18T17:11:01.759Z,1.92
2022-10-18T17:13:31.238Z,2.00
2022-10-18T17:16:03.766Z,1.90
2022-10-18T17:18:35.109Z,1.92
2022-10-18T17:21:03.426Z,2.47
2022-10-18T17:23:31.562Z,1.90
2022-10-18T17:26:06.769Z,2.40
2022-10-18T17:28:38.839Z,2.13
2022-10-18T17:31:08.256Z,2.40
2022-10-18T17:33:36.467Z,2.05
2022-10-18T17:36:04.984Z,2.15
2022-10-18T17:38:33.034Z,2.08
2022-10-18T17:41:01.336Z,2.17
2022-10-18T17:43:29.378Z,2.15
2022-10-18T17:45:58.779Z,2.10
2022-10-18T17:48:28.265Z,1.95
2022-10-18T17:50:56.713Z,1.83
2022-10-18T17:53:28.466Z,2.22
2022-10-18T17:56:02.402Z,1.90
2022-10-18T17:58:31.513Z,1.98
2022-10-18T18:01:09.823Z,2.10
2022-10-18T18:03:37.946Z,2.38
2022-10-18T18:06:16.725Z,2.55
2022-10-18T18:08:44.853Z,2.40
2022-10-18T18:11:12.973Z,2.00
2022-10-18T18:13:41.251Z,2.35
2022-10-18T18:16:16.692Z,1.88
2022-10-18T18:18:45.064Z,1.60
2022-10-18T18:21:13.449Z,1.75
2022-10-18T18:23:41.572Z,1.50
2022-10-18T18:26:09.830Z,1.98
2022-10-18T18:28:38.381Z,1.75
2022-10-18T18:31:07.697Z,2.00
2022-10-18T18:33:37.712Z,1.58
2022-10-18T18:36:06.995Z,1.88
2022-10-18T18:38:37.370Z,1.50
2022-10-18T18:41:10.324Z,1.80
2022-10-18T18:43:39.526Z,1.65
2022-10-18T18:46:08.047Z,1.52
2022-10-18T18:48:37.967Z,1.73
2022-10-18T18:51:09.822Z,1.70
2022-10-18T18:53:39.144Z,1.90
2022-10-18T18:56:10.767Z,1.48
2022-10-18T18:58:40.096Z,1.75
2022-10-18T19:01:09.175Z,1.90
2022-10-18T19:03:40.253Z,1.80
2022-10-18T19:06:10.887Z,1.52
2022-10-18T19:08:40.246Z,1.65
2022-10-18T19:11:09.636Z,1.63
2022-10-18T19:13:37.830Z,1.60
2022-10-18T19:16:20.362Z,1.75
2022-10-18T19:18:58.253Z,1.55
2022-10-18T19:21:28.884Z,1.60
2022-10-18T19:23:57.764Z,1.98
2022-10-18T19:26:32.071Z,2.00
2022-10-18T19:29:09.581Z,1.55
2022-10-18T19:31:38.337Z,1.70
2022-10-18T19:34:09.494Z,1.83
2022-10-18T19:36:38.566Z,1.40
2022-10-18T19:39:09.919Z,1.45
2022-10-18T19:41:37.967Z,1.60
2022-10-18T19:44:06.464Z,1.55
2022-10-18T19:46:34.478Z,1.40
2022-10-18T19:49:02.529Z,1.40
2022-10-18T19:51:31.939Z,1.50
2022-10-18T19:54:00.189Z,1.33
2022-10-18T19:56:29.153Z,1.20
2022-10-18T19:58:57.852Z,1.50
2022-10-18T20:01:27.360Z,1.48
2022-10-18T20:03:55.942Z,1.70
2022-10-18T20:06:24.400Z,1.30
2022-10-18T20:08:54.050Z,1.40
2022-10-18T20:11:24.286Z,1.50
2022-10-18T20:13:52.583Z,2.15
2022-10-18T20:16:27.703Z,1.63
2022-10-18T20:18:57.627Z,1.90
2022-10-18T20:21:26.462Z,1.65
2022-10-18T20:23:55.930Z,2.03
2022-10-18T20:26:25.603Z,1.75
2022-10-18T20:28:57.747Z,1.52
2022-10-18T20:31:27.753Z,1.88
2022-10-18T20:33:57.458Z,2.10
2022-10-18T20:36:26.473Z,1.83
2022-10-18T20:38:56.172Z,1.60
2022-10-18T20:41:26.651Z,1.92
2022-10-18T20:43:56.127Z,2.03
2022-10-18T20:46:24.848Z,1.50
2022-10-18T20:48:53.915Z,2.00
2022-10-18T20:51:22.660Z,1.90
2022-10-18T20:53:51.359Z,1.90
2022-10-18T20:56:23.223Z,1.90
2022-10-18T20:58:52.582Z,1.92
2022-10-18T21:01:23.461Z,1.73
2022-10-18T21:03:54.209Z,2.05
2022-10-18T21:06:23.898Z,1.80
2022-10-18T21:08:54.517Z,1.90
2022-10-18T21:11:24.767Z,1.80
2022-10-18T21:13:53.261Z,1.70
2022-10-18T21:16:21.351Z,1.88
2022-10-18T21:18:50.144Z,2.00
2022-10-18T21:21:22.982Z,1.98
2022-10-18T21:23:51.857Z,1.73
2022-10-18T21:26:22.108Z,1.65
2022-10-18T21:28:52.946Z,1.52
2022-10-18T21:31:23.205Z,1.65
2022-10-18T21:33:54.909Z,1.60
2022-10-18T21:36:23.577Z,1.73
2022-10-18T21:38:51.690Z,1.45
2022-10-18T21:41:21.370Z,1.60
2022-10-18T21:43:53.072Z,1.88
2022-10-18T21:46:23.090Z,1.33
2022-10-18T21:48:53.365Z,1.50
2022-10-18T21:51:23.082Z,1.42
2022-10-18T21:53:53.465Z,1.60
2022-10-18T21:56:23.458Z,2.00
2022-10-18T21:58:52.985Z,1.40
2022-10-18T22:01:23.666Z,1.92
2022-10-18T22:03:53.308Z,1.45
2022-10-18T22:06:22.117Z,1.45
2022-10-18T22:08:52.620Z,1.50
2022-10-18T22:11:23.910Z,1.60
2022-10-18T22:13:54.153Z,1.50
2022-10-18T22:16:22.782Z,1.70
2022-10-18T22:18:51.969Z,2.03
2022-10-18T22:21:21.743Z,2.10
2022-10-18T22:23:54.211Z,2.05
2022-10-18T22:26:23.575Z,1.75
2022-10-18T22:28:57.538Z,2.20
2022-10-18T22:31:28.099Z,1.92
2022-10-18T22:33:57.279Z,1.45
2022-10-18T22:36:25.831Z,1.92
2022-10-18T22:38:54.153Z,1.80
2022-10-18T22:41:22.225Z,1.80
2022-10-18T22:43:51.538Z,1.77
2022-10-18T22:46:21.227Z,1.90
2022-10-18T22:48:49.853Z,1.98
2022-10-18T22:51:18.306Z,2.08
2022-10-18T22:53:46.913Z,1.83
2022-10-18T22:56:17.627Z,1.73
2022-10-18T22:58:45.826Z,2.10
2022-10-18T23:01:15.800Z,2.10
2022-10-18T23:03:45.202Z,1.90
2022-10-18T23:06:21.464Z,1.70
2022-10-18T23:08:49.914Z,1.95
2022-10-18T23:11:18.271Z,1.80
2022-10-18T23:13:46.532Z,1.60
2022-10-18T23:16:15.289Z,1.98
2022-10-18T23:18:45.503Z,1.73
2022-10-18T23:21:15.196Z,1.50
2022-10-18T23:23:43.936Z,1.80
2022-10-18T23:26:14.637Z,1.70
2022-10-18T23:28:44.988Z,1.70
2022-10-18T23:31:14.842Z,1.65
2022-10-18T23:33:42.887Z,1.75
2022-10-18T23:36:12.375Z,1.48
2022-10-18T23:38:40.950Z,2.08
2022-10-18T23:41:10.790Z,1.80
2022-10-18T23:43:39.478Z,1.80
2022-10-18T23:46:08.365Z,1.60
2022-10-18T23:48:37.001Z,2.10
2022-10-18T23:51:05.801Z,2.00
2022-10-18T23:53:35.598Z,2.33
2022-10-18T23:56:06.229Z,1.83
2022-10-18T23:58:35.826Z,1.85
